Time;durP1;ratioP1;P1;durP2;ratioP2;P2;SDS_P1;SDS_P2;PMS_P1;PMS_P2;Temp;Humidity;BMP_temperature;BMP_pressure;BME280_temperature;BME280_humidity;BME280_pressure;Samples;Min_cycle;Max_cycle;Signal;HPM_P1;HPM_P2
2023/12/10 00:01:59;;;;;;;;;;;;;;;14.20;53.67;98998.94;5016568;28;6816;-83
2023/12/10 00:04:25;;;;;;;;;;;;;;;14.21;53.92;98995.50;5023837;28;6836;-84
2023/12/10 00:06:50;;;;;;;;;;;;;;;14.23;53.41;98998.94;5024347;28;6783;-84
2023/12/10 00:09:16;;;;;;;;;;;;;;;14.23;53.35;98993.78;5026826;28;7200;-84
2023/12/10 00:11:41;;;;;;;;;;;;;;;14.27;53.46;98998.13;5008139;28;6995;-84
2023/12/10 00:14:07;;;;;;;;;;;;;;;14.29;53.13;99003.28;5003868;28;7025;-83
2023/12/10 00:16:32;;;;;;;;;;;;;;;14.29;53.01;99011.91;5026189;28;7009;-84
2023/12/10 00:18:58;;;;;;;;;;;;;;;14.30;53.21;99013.63;5013401;28;8826;-84
2023/12/10 00:21:24;;;;;;;;;;;;;;;14.31;53.00;99024.78;5025102;28;6966;-84
2023/12/10 00:23:50;;;;;;;;;;;;;;;14.32;53.35;99016.19;5021729;28;7147;-83
2023/12/10 00:26:16;;;;;;;;;;;;;;;14.33;53.02;99019.66;5017370;28;6925;-83
2023/12/10 00:28:41;;;;;;;;;;;;;;;14.33;53.12;99002.47;5002890;28;8392;-84
2023/12/10 00:31:08;;;;;;;;;;;;;;;14.33;53.10;99017.09;5023962;28;6954;-84
2023/12/10 00:33:33;;;;;;;;;;;;;;;14.32;53.04;99026.50;5006179;28;7230;-83
2023/12/10 00:35:59;;;;;;;;;;;;;;;14.33;52.71;99025.66;5022537;28;7324;-84
2023/12/10 00:38:24;;;;;;;;;;;;;;;14.35;52.70;99028.25;5020594;28;6962;-84
2023/12/10 00:40:50;;;;;;;;;;;;;;;14.32;52.76;99035.97;5014887;28;7182;-83
2023/12/10 00:43:16;;;;;;;;;;;;;;;14.33;52.81;99035.13;5010661;28;7347;-84
2023/12/10 00:45:42;;;;;;;;;;;;;;;14.33;53.34;99035.13;5007890;28;6992;-84
2023/12/10 00:48:08;;;;;;;;;;;;;;;14.35;52.44;99043.72;5008671;28;7146;-84
2023/12/10 00:50:34;;;;;;;;;;;;;;;14.35;52.48;99047.19;5018895;28;8484;-83
2023/12/10 00:53:03;;;;;;;;;;;;;;;14.35;52.70;99054.03;5018257;28;8421;-84
2023/12/10 00:55:28;;;;;;;;;;;;;;;14.37;52.11;99057.50;5047102;28;7333;-83
2023/12/10 00:57:54;;;;;;;;;;;;;;;14.35;52.22;99066.94;5023358;28;6967;-84
2023/12/10 01:00:19;;;;;;;;;;;;;;;14.34;52.06;99063.50;5024591;28;7190;-84
2023/12/10 01:02:45;;;;;;;;;;;;;;;14.36;52.16;99068.66;5027423;28;7010;-84
2023/12/10 01:05:11;;;;;;;;;;;;;;;14.34;52.61;99065.19;5033919;28;8445;-85
2023/12/10 01:07:36;;;;;;;;;;;;;;;14.33;52.45;99069.47;5021162;28;7219;-85
2023/12/10 01:10:05;;;;;;;;;;;;;;;14.34;52.21;99066.06;5042423;28;7005;-86
2023/12/10 01:12:35;;;;;;;;;;;;;;;14.34;51.60;99070.34;5032719;28;7079;-85
2023/12/10 01:15:01;;;;;;;;;;;;;;;14.37;51.45;99085.84;5021626;28;7197;-85
2023/12/10 01:17:26;;;;;;;;;;;;;;;14.36;51.66;99084.13;5025633;28;6940;-85
2023/12/10 01:19:53;;;;;;;;;;;;;;;14.36;51.78;99078.97;5021726;28;7097;-85
2023/12/10 01:22:18;;;;;;;;;;;;;;;14.36;51.31;99076.38;5020174;28;6835;-85
2023/12/10 01:24:45;;;;;;;;;;;;;;;14.36;51.70;99089.28;5026887;28;7210;-84
2023/12/10 01:27:11;;;;;;;;;;;;;;;14.35;51.34;99087.53;5014901;28;8471;-84
2023/12/10 01:29:36;;;;;;;;;;;;;;;14.34;50.80;99066.06;5013140;28;8656;-84
2023/12/10 01:32:02;;;;;;;;;;;;;;;14.32;51.36;99093.53;5044840;28;6830;-84
2023/12/10 01:34:28;;;;;;;;;;;;;;;14.29;50.85;99089.22;5033957;28;7383;-84
2023/12/10 01:36:53;;;;;;;;;;;;;;;14.26;51.02;99086.59;5022665;28;7025;-84
2023/12/10 01:39:19;;;;;;;;;;;;;;;14.23;51.41;99086.56;5023582;28;7306;-84
2023/12/10 01:41:45;;;;;;;;;;;;;;;14.23;50.79;99098.56;5030309;28;6864;-84
2023/12/10 01:44:12;;;;;;;;;;;;;;;14.24;50.76;99108.91;5014839;28;7168;-84
2023/12/10 01:46:37;;;;;;;;;;;;;;;14.22;50.87;99102.00;5017188;28;8544;-85
2023/12/10 01:49:07;;;;;;;;;;;;;;;14.22;50.75;99100.28;5011041;28;8378;-84
2023/12/10 01:51:34;;;;;;;;;;;;;;;14.21;50.82;99106.28;5033078;28;8295;-85
2023/12/10 01:54:01;;;;;;;;;;;;;;;14.23;50.40;99109.75;5027064;28;6874;-84
2023/12/10 01:56:28;;;;;;;;;;;;;;;14.24;50.65;99108.91;5032096;28;8424;-85
2023/12/10 01:58:54;;;;;;;;;;;;;;;14.25;50.43;99123.50;5007702;28;8499;-85
2023/12/10 02:01:20;;;;;;;;;;;;;;;14.25;50.24;99097.75;5022270;28;6780;-84
2023/12/10 02:03:46;;;;;;;;;;;;;;;14.24;50.35;99108.91;5024783;28;6961;-84
2023/12/10 02:06:11;;;;;;;;;;;;;;;14.24;50.35;99129.50;5033124;28;8801;-85
2023/12/10 02:08:37;;;;;;;;;;;;;;;14.23;49.96;99125.22;5023135;28;7067;-84
2023/12/10 02:11:02;;;;;;;;;;;;;;;14.24;49.50;99136.38;5026427;28;8643;-84
2023/12/10 02:13:28;;;;;;;;;;;;;;;14.23;49.66;99125.22;5029415;28;7782;-84
2023/12/10 02:15:54;;;;;;;;;;;;;;;14.21;49.55;99138.91;5030983;28;6803;-83
2023/12/10 02:18:20;;;;;;;;;;;;;;;14.20;49.59;99135.50;5016627;28;8486;-83
2023/12/10 02:20:47;;;;;;;;;;;;;;;14.19;49.27;99132.88;5020826;28;6827;-84
2023/12/10 02:23:32;;;;;;;;;;;;;;;14.15;49.73;99161.19;5013704;28;8475;-84
2023/12/10 02:25:58;;;;;;;;;;;;;;;14.14;48.93;99156.00;5009286;28;8603;-85
2023/12/10 02:28:24;;;;;;;;;;;;;;;14.15;48.74;99157.75;5032969;28;6796;-84
2023/12/10 02:30:50;;;;;;;;;;;;;;;14.15;48.50;99152.59;5016564;28;6926;-84
2023/12/10 02:33:15;;;;;;;;;;;;;;;14.15;48.56;99158.63;5013329;28;8407;-84
2023/12/10 02:35:41;;;;;;;;;;;;;;;14.12;48.36;99168.00;5009629;28;7283;-84
2023/12/10 02:38:06;;;;;;;;;;;;;;;14.10;48.97;99172.25;5017352;28;7379;-85
2023/12/10 02:40:32;;;;;;;;;;;;;;;14.03;48.55;99155.84;5023757;28;6780;-85
2023/12/10 02:42:57;;;;;;;;;;;;;;;13.99;48.99;99166.97;5025997;28;6859;-85
2023/12/10 02:45:23;;;;;;;;;;;;;;;13.92;49.13;99171.19;5020605;28;8692;-85
2023/12/10 02:47:48;;;;;;;;;;;;;;;13.85;48.74;99166.78;5022093;28;7464;-85
2023/12/10 02:50:14;;;;;;;;;;;;;;;13.74;49.85;99167.47;5029530;28;6972;-84
2023/12/10 02:52:39;;;;;;;;;;;;;;;13.64;49.39;99175.03;5027127;28;6998;-84
2023/12/10 02:55:06;;;;;;;;;;;;;;;13.53;49.71;99177.44;5026941;28;7533;-85
2023/12/10 02:57:32;;;;;;;;;;;;;;;13.38;50.48;99194.31;5016307;28;7194;-85
2023/12/10 02:59:57;;;;;;;;;;;;;;;13.27;50.42;99186.41;5027974;28;8630;-85
2023/12/10 03:02:23;;;;;;;;;;;;;;;13.15;50.81;99192.22;5003206;28;7247;-84
2023/12/10 03:04:48;;;;;;;;;;;;;;;13.06;50.89;99199.75;5014736;28;8610;-84
2023/12/10 03:07:14;;;;;;;;;;;;;;;12.98;51.79;99201.31;5028936;28;8629;-85
2023/12/10 03:09:39;;;;;;;;;;;;;;;12.88;52.31;99211.44;5038767;28;8560;-84
2023/12/10 03:12:05;;;;;;;;;;;;;;;12.81;52.29;99221.56;5030116;28;6780;-85
2023/12/10 03:14:31;;;;;;;;;;;;;;;12.73;52.11;99198.25;5030785;28;7170;-85
2023/12/10 03:16:57;;;;;;;;;;;;;;;12.67;53.23;99219.56;5015113;28;8482;-85
2023/12/10 03:19:23;;;;;;;;;;;;;;;12.60;53.53;99208.28;5013118;28;8772;-85
2023/12/10 03:21:48;;;;;;;;;;;;;;;12.56;53.29;99236.47;5029711;28;8304;-84
2023/12/10 03:24:14;;;;;;;;;;;;;;;12.52;53.43;99225.25;5026737;28;6874;-84
2023/12/10 03:26:39;;;;;;;;;;;;;;;12.47;53.50;99235.44;5020053;28;8563;-83
2023/12/10 03:29:05;;;;;;;;;;;;;;;12.44;54.38;99245.66;5017837;28;6784;-83
2023/12/10 03:31:31;;;;;;;;;;;;;;;12.40;54.08;99219.88;4996213;28;8718;-82
2023/12/10 03:33:56;;;;;;;;;;;;;;;12.34;54.01;99257.41;5009598;28;8526;-83
2023/12/10 03:36:22;;;;;;;;;;;;;;;12.29;54.45;99223.06;5019089;28;7131;-83
2023/12/10 03:38:48;;;;;;;;;;;;;;;12.26;54.59;99243.53;5019337;28;7180;-83
2023/12/10 03:41:13;;;;;;;;;;;;;;;12.24;54.82;99237.50;5007703;28;8729;-82
2023/12/10 03:43:39;;;;;;;;;;;;;;;12.20;55.27;99228.00;5021308;28;7011;-82
2023/12/10 03:46:04;;;;;;;;;;;;;;;12.20;54.95;99240.84;5014157;28;6989;-83
2023/12/10 03:48:30;;;;;;;;;;;;;;;12.16;55.30;99252.75;5019740;28;6787;-82
2023/12/10 03:50:55;;;;;;;;;;;;;;;12.14;55.28;99246.72;5008390;28;7018;-82
2023/12/10 03:53:21;;;;;;;;;;;;;;;12.13;55.57;99242.41;5016545;28;6788;-82
2023/12/10 03:55:46;;;;;;;;;;;;;;;12.12;55.65;99256.09;5017475;28;6986;-82
2023/12/10 03:58:12;;;;;;;;;;;;;;;12.11;55.57;99250.91;5013578;28;8630;-82
2023/12/10 04:00:37;;;;;;;;;;;;;;;12.11;56.42;99258.59;5023164;28;8372;-83
2023/12/10 04:03:02;;;;;;;;;;;;;;;12.10;56.72;99246.59;5002507;28;7340;-82
2023/12/10 04:05:28;;;;;;;;;;;;;;;12.11;56.65;99253.47;5014381;28;7101;-82
2023/12/10 04:07:53;;;;;;;;;;;;;;;12.15;56.12;99261.28;5015379;28;6775;-82
2023/12/10 04:10:19;;;;;;;;;;;;;;;12.17;56.71;99258.75;5008239;28;8747;-82
2023/12/10 04:12:44;;;;;;;;;;;;;;;12.23;56.17;99264.03;5009892;28;6764;-82
2023/12/10 04:15:11;;;;;;;;;;;;;;;12.28;56.53;99267.59;5018281;28;6867;-83
2023/12/10 04:17:36;;;;;;;;;;;;;;;12.33;56.03;99265.13;4998616;28;7015;-82
2023/12/10 04:20:03;;;;;;;;;;;;;;;12.36;56.04;99255.78;5023173;28;8807;-83
2023/12/10 04:22:28;;;;;;;;;;;;;;;12.42;55.66;99262.75;4996900;28;8378;-83
2023/12/10 04:24:54;;;;;;;;;;;;;;;12.46;55.50;99261.13;5023299;28;7207;-83
2023/12/10 04:27:19;;;;;;;;;;;;;;;12.55;55.27;99268.16;5022569;28;6788;-83
2023/12/10 04:29:45;;;;;;;;;;;;;;;12.62;55.80;99278.59;5013176;28;6780;-83
2023/12/10 04:32:10;;;;;;;;;;;;;;;12.70;55.11;99285.59;5006515;28;8516;-83
2023/12/10 04:34:36;;;;;;;;;;;;;;;12.76;54.92;99280.59;5022003;28;8617;-84
2023/12/10 04:37:02;;;;;;;;;;;;;;;12.82;55.08;99283.28;5015473;28;7837;-84
2023/12/10 04:39:27;;;;;;;;;;;;;;;12.90;55.00;99291.19;5025106;28;6975;-83
2023/12/10 04:41:53;;;;;;;;;;;;;;;12.96;54.53;99282.72;5019768;28;8422;-84
2023/12/10 04:44:19;;;;;;;;;;;;;;;13.01;53.83;99299.97;5019315;28;8636;-84
2023/12/10 04:46:44;;;;;;;;;;;;;;;13.07;53.61;99291.53;5016262;28;6934;-83
2023/12/10 04:49:10;;;;;;;;;;;;;;;13.10;54.40;99301.00;5038340;28;6847;-84
2023/12/10 04:51:36;;;;;;;;;;;;;;;13.15;53.63;99310.56;4998940;28;7614;-84
2023/12/10 04:54:02;;;;;;;;;;;;;;;13.21;53.28;99307.22;5006789;28;7300;-84
2023/12/10 04:56:28;;;;;;;;;;;;;;;13.25;53.26;99313.31;5017168;28;6980;-84
2023/12/10 04:58:54;;;;;;;;;;;;;;;13.30;53.70;99319.41;5023307;28;6875;-84
2023/12/10 05:01:19;;;;;;;;;;;;;;;13.31;52.52;99321.13;5002906;28;6938;-84
2023/12/10 05:03:46;;;;;;;;;;;;;;;13.34;52.70;99319.47;5020027;28;7008;-84
2023/12/10 05:06:11;;;;;;;;;;;;;;;13.38;52.28;99323.00;5007422;28;8427;-84
2023/12/10 05:08:37;;;;;;;;;;;;;;;13.40;52.02;99316.16;5021840;28;8387;-83
2023/12/10 05:11:03;;;;;;;;;;;;;;;13.41;52.29;99325.63;5006079;28;8384;-84
2023/12/10 05:13:29;;;;;;;;;;;;;;;13.45;52.18;99326.56;5005780;28;7203;-83
2023/12/10 05:15:57;;;;;;;;;;;;;;;13.49;51.56;99328.38;5020472;28;8484;-84
2023/12/10 05:18:22;;;;;;;;;;;;;;;13.50;52.19;99336.97;5007354;28;8479;-84
2023/12/10 05:20:48;;;;;;;;;;;;;;;13.53;51.83;99337.03;5035788;28;6791;-85
2023/12/10 05:23:13;;;;;;;;;;;;;;;13.54;51.66;99333.63;5008558;28;8726;-85
2023/12/10 05:25:39;;;;;;;;;;;;;;;13.58;51.65;99332.81;5017353;28;7136;-87
2023/12/10 05:28:04;;;;;;;;;;;;;;;13.59;50.52;99344.84;5001493;28;8395;-86
2023/12/10 05:30:30;;;;;;;;;;;;;;;13.63;51.34;99327.75;5022741;28;6974;-85
2023/12/10 05:32:55;;;;;;;;;;;;;;;13.65;51.19;99344.09;5006778;28;8791;-86
2023/12/10 05:35:21;;;;;;;;;;;;;;;13.65;50.41;99332.09;5015155;28;7307;-85
2023/12/10 05:37:46;;;;;;;;;;;;;;;13.67;51.36;99345.03;5022819;28;7073;-84
2023/12/10 05:40:12;;;;;;;;;;;;;;;13.67;51.06;99342.44;5020260;28;8474;-84
2023/12/10 05:42:37;;;;;;;;;;;;;;;13.69;50.11;99351.06;5028797;28;8363;-85
2023/12/10 05:45:03;;;;;;;;;;;;;;;13.70;50.63;99376.81;5027888;28;7166;-84
2023/12/10 05:47:29;;;;;;;;;;;;;;;13.71;51.11;99381.16;5041482;28;7675;-82
2023/12/10 05:49:54;;;;;;;;;;;;;;;13.72;50.75;99395.75;5028477;28;8399;-82
2023/12/10 05:52:20;;;;;;;;;;;;;;;13.76;50.50;99399.22;5020039;28;7410;-82
2023/12/10 05:54:45;;;;;;;;;;;;;;;13.77;50.82;99402.69;5025271;28;7156;-83
2023/12/10 05:57:11;;;;;;;;;;;;;;;13.78;50.14;99399.28;5037381;28;6792;-83
2023/12/10 05:59:37;;;;;;;;;;;;;;;13.79;50.70;99395.84;4999872;28;8592;-82
2023/12/10 06:02:03;;;;;;;;;;;;;;;13.79;50.24;99407.03;5016228;28;7120;-83
2023/12/10 06:04:28;;;;;;;;;;;;;;;13.81;50.81;99413.09;5004960;28;8675;-82
2023/12/10 06:06:54;;;;;;;;;;;;;;;13.81;50.29;99433.69;5007842;28;8384;-83
2023/12/10 06:09:19;;;;;;;;;;;;;;;13.84;50.67;99420.00;5020932;28;7718;-82
2023/12/10 06:11:46;;;;;;;;;;;;;;;13.85;50.59;99426.91;5017693;28;8128;-83
2023/12/10 06:14:11;;;;;;;;;;;;;;;13.84;50.14;99420.84;5026117;28;8414;-83
2023/12/10 06:16:37;;;;;;;;;;;;;;;13.84;50.97;99427.72;5023978;28;7243;-83
2023/12/10 06:19:06;;;;;;;;;;;;;;;13.86;50.35;99433.78;5017654;28;8439;-83
2023/12/10 06:21:32;;;;;;;;;;;;;;;13.87;50.65;99445.81;5000007;28;7829;-82
2023/12/10 06:23:57;;;;;;;;;;;;;;;13.87;50.22;99435.50;5009087;28;7043;-83
2023/12/10 06:26:23;;;;;;;;;;;;;;;13.88;50.60;99447.53;5017896;28;6949;-82
2023/12/10 06:28:48;;;;;;;;;;;;;;;13.92;50.10;99443.31;5025072;28;6807;-83
2023/12/10 06:31:15;;;;;;;;;;;;;;;13.93;49.79;99458.81;5017233;28;7138;-83
2023/12/10 06:33:44;;;;;;;;;;;;;;;13.92;50.60;99453.63;5008645;28;7531;-82
2023/12/10 06:36:10;;;;;;;;;;;;;;;13.94;50.13;99467.41;5022935;28;7792;-84
2023/12/10 06:38:36;;;;;;;;;;;;;;;13.93;50.31;99476.84;5024024;28;8700;-82
2023/12/10 06:41:02;;;;;;;;;;;;;;;13.95;49.94;99461.41;5023503;28;8486;-84
2023/12/10 06:43:28;;;;;;;;;;;;;;;13.94;50.13;99478.59;5016766;28;6859;-83
2023/12/10 06:45:58;;;;;;;;;;;;;;;13.96;50.50;99494.09;5004369;28;7397;-83
2023/12/10 06:48:23;;;;;;;;;;;;;;;13.95;50.10;99482.00;5006897;28;8764;-83
2023/12/10 06:56:00;;;;;;;;;;;;;;;13.95;50.21;99484.59;4978259;28;1146036;-84
2023/12/10 06:58:26;;;;;;;;;;;;;;;13.96;50.12;99487.19;5017460;28;7029;-88
2023/12/10 07:00:52;;;;;;;;;;;;;;;13.97;49.79;99493.25;5005613;28;6939;-87
2023/12/10 07:03:17;;;;;;;;;;;;;;;13.95;50.81;99498.34;5007764;28;7055;-87
2023/12/10 07:05:42;;;;;;;;;;;;;;;13.98;50.14;99498.41;5006037;28;7062;-87
2023/12/10 07:08:08;;;;;;;;;;;;;;;13.97;49.88;99512.13;5018638;28;7355;-87
2023/12/10 07:10:33;;;;;;;;;;;;;;;14.00;50.13;99508.75;4998865;23;8517;-87
2023/12/10 07:12:59;;;;;;;;;;;;;;;13.97;49.63;99517.28;4977827;28;7034;-88
2023/12/10 07:15:24;;;;;;;;;;;;;;;13.97;50.21;99525.00;4975579;28;7388;-86
2023/12/10 07:17:50;;;;;;;;;;;;;;;13.97;49.91;99553.34;4976946;28;7362;-86
2023/12/10 07:20:16;;;;;;;;;;;;;;;13.98;49.99;99536.19;4976039;28;6809;-84
2023/12/10 07:22:41;;;;;;;;;;;;;;;13.97;50.39;99550.75;4977969;28;6977;-89
2023/12/10 07:25:07;;;;;;;;;;;;;;;14.00;49.88;99549.97;4998462;28;7202;-87
2023/12/10 07:27:33;;;;;;;;;;;;;;;13.99;49.59;99561.97;4973671;28;8302;-87
2023/12/10 07:29:59;;;;;;;;;;;;;;;14.00;49.98;99566.31;4975006;28;8499;-88
2023/12/10 07:32:25;;;;;;;;;;;;;;;13.95;49.73;99567.91;4978845;28;7275;-87
2023/12/10 07:34:51;;;;;;;;;;;;;;;13.94;49.90;99576.47;4978626;28;7708;-86
2023/12/10 07:37:16;;;;;;;;;;;;;;;13.93;49.83;99586.72;4959220;28;6832;-88
2023/12/10 07:39:42;;;;;;;;;;;;;;;13.93;49.69;99594.47;4990413;28;7074;-85
2023/12/10 07:42:07;;;;;;;;;;;;;;;13.92;49.41;99587.56;4978308;28;8424;-86
2023/12/10 07:44:35;;;;;;;;;;;;;;;13.91;49.44;99586.72;4974897;28;6939;-86
2023/12/10 07:47:02;;;;;;;;;;;;;;;13.91;49.77;99602.19;4976252;28;7179;-86
2023/12/10 07:49:27;;;;;;;;;;;;;;;13.92;50.28;99609.06;4977755;28;8984;-86
2023/12/10 07:51:55;;;;;;;;;;;;;;;13.93;50.10;99617.66;4974981;28;8442;-86
2023/12/10 07:54:21;;;;;;;;;;;;;;;13.91;49.55;99622.78;4994599;28;8451;-86
2023/12/10 07:56:46;;;;;;;;;;;;;;;13.91;49.76;99633.09;4975261;28;6915;-87
2023/12/10 07:59:12;;;;;;;;;;;;;;;13.90;49.80;99621.00;4961035;28;6990;-87
2023/12/10 08:01:40;;;;;;;;;;;;;;;13.92;49.43;99623.63;4961366;28;7125;-86
2023/12/10 08:04:06;;;;;;;;;;;;;;;13.93;49.60;99644.28;4974189;28;7475;-86
2023/12/10 08:06:31;;;;;;;;;;;;;;;13.91;49.48;99642.50;4973465;28;8158;-86
2023/12/10 08:08:57;;;;;;;;;;;;;;;13.92;49.86;99647.72;4961512;28;7184;-85
2023/12/10 08:11:23;;;;;;;;;;;;;;;13.94;49.28;99661.47;4981105;28;7255;-85
2023/12/10 08:13:51;;;;;;;;;;;;;;;13.93;49.91;99659.75;4988675;28;7907;-85
2023/12/10 08:16:17;;;;;;;;;;;;;;;13.93;49.65;99626.25;4980679;28;8472;-86
2023/12/10 08:18:42;;;;;;;;;;;;;;;13.92;50.19;99663.16;4992316;28;6980;-85
2023/12/10 08:21:08;;;;;;;;;;;;;;;13.91;49.72;99655.38;4976780;28;7104;-86
2023/12/10 08:23:33;;;;;;;;;;;;;;;13.91;50.53;99663.13;4993464;28;7240;-86
2023/12/10 08:26:00;;;;;;;;;;;;;;;13.93;50.00;99675.19;4974991;28;7165;-85
2023/12/10 08:28:25;;;;;;;;;;;;;;;13.93;50.45;99667.47;4972165;28;7455;-85
2023/12/10 08:30:51;;;;;;;;;;;;;;;13.95;50.41;99681.25;4989295;28;8720;-85
2023/12/10 08:33:16;;;;;;;;;;;;;;;13.96;50.75;99666.69;4977442;28;6962;-85
2023/12/10 08:35:42;;;;;;;;;;;;;;;13.99;50.42;99670.16;4977896;28;8516;-86
2023/12/10 08:38:07;;;;;;;;;;;;;;;14.00;50.98;99671.06;4991377;28;6958;-85
2023/12/10 08:40:33;;;;;;;;;;;;;;;14.00;50.53;99668.47;4974482;28;8384;-86
2023/12/10 08:42:58;;;;;;;;;;;;;;;14.04;51.07;99665.13;4979121;28;8634;-86
2023/12/10 08:45:24;;;;;;;;;;;;;;;14.06;50.97;99665.16;4992030;28;8433;-86
2023/12/10 08:47:49;;;;;;;;;;;;;;;14.09;50.71;99660.06;4987779;28;7699;-86
2023/12/10 08:50:14;;;;;;;;;;;;;;;14.12;51.07;99673.03;4977392;28;6776;-87
2023/12/10 08:52:40;;;;;;;;;;;;;;;14.12;50.87;99660.16;4977705;28;6814;-85
2023/12/10 08:55:06;;;;;;;;;;;;;;;14.11;51.01;99676.44;4976125;28;6792;-86
2023/12/10 08:57:31;;;;;;;;;;;;;;;14.13;51.49;99672.19;4989492;28;6948;-86
2023/12/10 09:00:00;;;;;;;;;;;;;;;14.12;51.27;99691.94;4992204;28;7158;-86
2023/12/10 09:02:26;;;;;;;;;;;;;;;14.11;51.52;99689.34;4975589;28;8183;-86
2023/12/10 09:04:51;;;;;;;;;;;;;;;14.10;51.00;99693.59;4992181;28;7122;-86
2023/12/10 09:07:17;;;;;;;;;;;;;;;14.13;50.94;99708.28;4992737;28;6936;-86
2023/12/10 09:09:42;;;;;;;;;;;;;;;14.18;51.25;99709.22;4990263;28;7193;-86
2023/12/10 09:12:08;;;;;;;;;;;;;;;14.22;50.99;99716.22;4993223;28;8505;-86
2023/12/10 09:14:35;;;;;;;;;;;;;;;14.26;50.98;99712.84;4996220;28;8501;-86
2023/12/10 09:17:01;;;;;;;;;;;;;;;14.28;51.34;99706.00;4988054;28;7140;-85
2023/12/10 09:19:29;;;;;;;;;;;;;;;14.33;51.11;99713.00;4973137;28;7251;-86
2023/12/10 09:21:55;;;;;;;;;;;;;;;14.35;50.38;99706.16;4986757;28;8114;-85
2023/12/10 09:24:22;;;;;;;;;;;;;;;14.33;50.87;99720.72;4978659;28;6871;-86
2023/12/10 09:26:48;;;;;;;;;;;;;;;14.36;50.89;99718.22;4996629;28;8564;-85
2023/12/10 09:29:13;;;;;;;;;;;;;;;14.39;50.69;99728.56;4981264;28;7486;-87
2023/12/10 09:31:39;;;;;;;;;;;;;;;14.43;50.78;99732.97;4988909;23;8497;-86
2023/12/10 09:34:05;;;;;;;;;;;;;;;14.48;50.56;99728.78;4974637;28;8412;-87
2023/12/10 09:36:30;;;;;;;;;;;;;;;14.52;51.03;99719.41;4942618;28;6969;-86
2023/12/10 09:38:55;;;;;;;;;;;;;;;14.55;51.07;99724.63;4960604;28;8803;-87
2023/12/10 09:41:21;;;;;;;;;;;;;;;14.58;50.93;99725.56;4961733;28;7187;-86
2023/12/10 09:43:47;;;;;;;;;;;;;;;14.54;50.48;99721.19;4950286;28;7318;-86
2023/12/10 09:46:14;;;;;;;;;;;;;;;14.53;51.25;99732.34;4966032;28;6949;-86
2023/12/10 09:48:43;;;;;;;;;;;;;;;14.50;51.13;99724.53;4959491;28;7195;-86
2023/12/10 09:51:10;;;;;;;;;;;;;;;14.45;51.53;99723.56;4945057;28;8483;-87
2023/12/10 09:53:35;;;;;;;;;;;;;;;14.43;51.40;99712.34;4942364;28;8023;-84
2023/12/10 09:56:01;;;;;;;;;;;;;;;14.42;50.99;99715.78;4955749;28;6844;-85
2023/12/10 09:58:26;;;;;;;;;;;;;;;14.40;51.38;99712.28;4940995;28;6952;-86
2023/12/10 10:00:52;;;;;;;;;;;;;;;14.43;51.88;99723.50;4953943;28;7462;-86
2023/12/10 10:03:19;;;;;;;;;;;;;;;14.48;51.68;99722.75;4956418;28;7230;-85
2023/12/10 10:05:44;;;;;;;;;;;;;;;14.57;52.29;99707.47;4939313;28;8687;-85
2023/12/10 10:08:10;;;;;;;;;;;;;;;14.70;52.33;99703.44;4953730;28;7331;-85
2023/12/10 10:10:35;;;;;;;;;;;;;;;14.82;52.30;99714.03;4955660;28;6910;-85
2023/12/10 10:13:02;;;;;;;;;;;;;;;14.96;51.97;99716.00;4939405;28;6945;-85
2023/12/10 10:15:30;;;;;;;;;;;;;;;15.08;52.03;99707.63;4919937;29;8846;-86
2023/12/10 10:17:57;;;;;;;;;;;;;;;15.12;51.67;99720.63;4921840;28;8515;-86
2023/12/10 10:20:24;;;;;;;;;;;;;;;15.14;51.54;99721.50;4939630;28;7091;-85
2023/12/10 10:22:50;;;;;;;;;;;;;;;15.17;51.61;99710.38;4917909;29;6808;-85
2023/12/10 10:25:16;;;;;;;;;;;;;;;15.31;51.55;99694.28;4951834;28;7254;-85
2023/12/10 10:27:41;;;;;;;;;;;;;;;15.48;51.68;99691.97;4954754;28;8618;-84
2023/12/10 10:30:07;;;;;;;;;;;;;;;15.61;51.00;99693.91;4935945;28;7025;-85
2023/12/10 10:32:33;;;;;;;;;;;;;;;15.74;50.57;99686.34;4918961;29;8461;-85
2023/12/10 10:35:03;;;;;;;;;;;;;;;15.87;50.30;99670.19;4927832;28;8406;-84
2023/12/10 10:37:28;;;;;;;;;;;;;;;16.03;50.47;99685.94;4916422;28;8720;-85
2023/12/10 10:39:54;;;;;;;;;;;;;;;16.18;50.29;99674.97;4926664;29;7050;-85
2023/12/10 10:42:19;;;;;;;;;;;;;;;16.33;50.10;99674.28;4933989;28;7163;-85
2023/12/10 10:44:46;;;;;;;;;;;;;;;16.47;50.21;99649.47;4929794;28;7178;-84
2023/12/10 10:47:12;;;;;;;;;;;;;;;16.68;49.92;99668.66;4935592;28;6904;-84
2023/12/10 10:49:44;;;;;;;;;;;;;;;16.89;48.90;99662.84;4936976;28;8491;-83
2023/12/10 10:52:16;;;;;;;;;;;;;;;17.14;48.42;99655.38;4935611;28;8579;-83
2023/12/10 10:54:43;;;;;;;;;;;;;;;17.39;47.75;99662.50;4921142;28;7183;-84
2023/12/10 10:57:09;;;;;;;;;;;;;;;17.60;47.14;99672.13;4934046;28;8485;-84
2023/12/10 10:59:34;;;;;;;;;;;;;;;17.79;46.85;99659.31;4928877;29;7203;-84
2023/12/10 11:02:08;;;;;;;;;;;;;;;17.73;45.76;99671.38;4911984;28;6943;-84
2023/12/10 11:04:39;;;;;;;;;;;;;;;17.39;46.31;99673.69;4921693;29;8507;-83
2023/12/10 11:07:07;;;;;;;;;;;;;;;17.08;46.76;99673.44;4934263;28;6939;-83
2023/12/10 11:09:56;;;;;;;;;;;;;;;17.02;47.17;99684.59;4924186;29;9041;-84
2023/12/10 11:12:54;;;;;;;;;;;;;;;17.27;47.42;99665.84;4931215;29;8506;-84
2023/12/10 11:15:24;;;;;;;;;;;;;;;17.29;46.33;99674.47;4921653;29;8558;-84
2023/12/10 11:17:51;;;;;;;;;;;;;;;17.22;47.07;99686.50;4929208;29;7189;-84
2023/12/10 11:20:41;;;;;;;;;;;;;;;17.08;46.84;99684.63;4922662;29;7190;-85
2023/12/10 11:23:08;;;;;;;;;;;;;;;16.98;46.86;99682.78;4922375;28;7041;-84
2023/12/10 11:25:35;;;;;;;;;;;;;;;16.88;47.19;99683.53;4929698;29;8462;-84
2023/12/10 11:28:17;;;;;;;;;;;;;;;16.80;47.05;99680.88;4929980;29;8473;-84
2023/12/10 11:30:44;;;;;;;;;;;;;;;16.73;47.39;99686.81;4918703;28;8473;-84
2023/12/10 11:33:10;;;;;;;;;;;;;;;16.64;47.78;99683.28;4904195;28;7245;-84
2023/12/10 11:35:36;;;;;;;;;;;;;;;16.56;47.91;99674.56;4935475;28;7166;-83
2023/12/10 11:38:02;;;;;;;;;;;;;;;16.47;47.97;99675.31;4933531;28;7264;-81
2023/12/10 11:40:29;;;;;;;;;;;;;;;16.41;48.12;99680.41;4919059;29;7091;-84
2023/12/10 11:43:04;;;;;;;;;;;;;;;16.29;48.47;99663.03;4921552;29;7150;-87
2023/12/10 11:45:30;;;;;;;;;;;;;;;16.18;47.73;99674.97;4937087;28;8629;-85
2023/12/10 11:47:55;;;;;;;;;;;;;;;16.07;48.57;99677.41;4938685;28;6784;-86
2023/12/10 11:50:21;;;;;;;;;;;;;;;16.00;48.37;99667.81;4918047;28;6974;-85
2023/12/10 11:52:47;;;;;;;;;;;;;;;15.98;48.69;99674.69;4920041;29;6955;-85
2023/12/10 11:55:13;;;;;;;;;;;;;;;15.94;48.80;99673.75;4942901;28;6776;-85
2023/12/10 11:57:43;;;;;;;;;;;;;;;15.91;48.76;99671.16;4936046;28;7216;-85
2023/12/10 12:00:11;;;;;;;;;;;;;;;15.88;49.01;99666.75;4930045;29;8014;-85
2023/12/10 12:02:55;;;;;;;;;;;;;;;15.83;49.09;99666.69;4916388;29;7161;-85
2023/12/10 12:05:20;;;;;;;;;;;;;;;15.81;48.91;99668.38;4926861;29;6979;-85
2023/12/10 12:07:50;;;;;;;;;;;;;;;15.83;49.45;99673.56;4919889;28;7198;-85
2023/12/10 12:10:17;;;;;;;;;;;;;;;15.83;49.56;99673.56;4935760;28;8487;-85
2023/12/10 12:12:45;;;;;;;;;;;;;;;15.86;49.84;99667.56;4935773;28;7289;-85
2023/12/10 12:15:11;;;;;;;;;;;;;;;15.87;49.18;99667.59;4922435;29;7143;-85
2023/12/10 12:17:37;;;;;;;;;;;;;;;15.87;49.18;99661.56;4930324;28;6998;-85
2023/12/10 12:20:18;;;;;;;;;;;;;;;15.83;49.05;99670.97;4916392;29;7098;-85
2023/12/10 12:22:45;;;;;;;;;;;;;;;15.75;49.43;99655.38;4904957;29;6992;-86
2023/12/10 12:25:11;;;;;;;;;;;;;;;15.74;49.72;99660.50;4917573;29;6984;-85
2023/12/10 12:27:40;;;;;;;;;;;;;;;15.71;49.53;99634.63;4984521;23;7078;-85
2023/12/10 12:30:07;;;;;;;;;;;;;;;15.69;49.54;99632.03;4973762;23;7140;-87
2023/12/10 12:32:33;;;;;;;;;;;;;;;15.67;49.27;99638.88;4965516;28;7180;-86
2023/12/10 12:34:58;;;;;;;;;;;;;;;15.68;49.32;99631.16;4958986;28;7049;-87
2023/12/10 12:37:24;;;;;;;;;;;;;;;15.67;49.24;99619.09;4973349;28;7172;-87
2023/12/10 12:39:51;;;;;;;;;;;;;;;15.69;49.78;99611.34;4978301;28;7239;-87
2023/12/10 12:42:17;;;;;;;;;;;;;;;15.67;49.44;99593.28;4959395;28;6973;-87
2023/12/10 12:44:47;;;;;;;;;;;;;;;15.69;49.48;99590.69;4980465;28;6897;-87
2023/12/10 12:47:13;;;;;;;;;;;;;;;15.68;49.90;99588.94;4976814;28;7016;-82
2023/12/10 12:49:38;;;;;;;;;;;;;;;15.66;49.43;99588.94;4959836;28;6783;-82
2023/12/10 12:52:05;;;;;;;;;;;;;;;15.68;49.47;99595.00;4954285;28;6895;-83
2023/12/10 12:54:31;;;;;;;;;;;;;;;15.67;49.47;99593.28;4995597;23;7008;-74
2023/12/10 12:56:57;;;;;;;;;;;;;;;15.65;49.25;99589.81;4966895;28;6918;-74
2023/12/10 12:59:23;;;;;;;;;;;;;;;15.64;49.80;99587.19;4972389;23;7220;-73